Time;durP1;ratioP1;P1;durP2;ratioP2;P2;SDS_P1;SDS_P2;PMS_P1;PMS_P2;Temp;Humidity;BMP_temperature;BMP_pressure;BME280_temperature;BME280_humidity;BME280_pressure;Samples;Min_cycle;Max_cycle;Signal;HPM_P1;HPM_P2
2022/11/17 00:02:15;;;;;;;0.43;0.10;;;;;;;-146.48;100.00;60459.00;5302199;28;20471;-74
2022/11/17 00:04:46;;;;;;;0.35;0.20;;;;;;;-146.48;100.00;60459.00;5302254;28;20511;-74
2022/11/17 00:07:17;;;;;;;0.43;0.20;;;;;;;-146.48;100.00;60459.00;5302254;28;20031;-75
2022/11/17 00:09:48;;;;;;;0.25;0.20;;;;;;;-146.48;100.00;60459.00;5302752;28;20031;-74
2022/11/17 00:15:10;;;;;;;0.52;0.20;;;;;;;-146.48;100.00;60459.00;5303028;28;20441;-74
2022/11/17 00:17:41;;;;;;;0.65;0.25;;;;;;;-146.48;100.00;60459.00;5301326;28;20111;-73
2022/11/17 00:23:05;;;;;;;0.65;0.20;;;;;;;-146.48;100.00;60459.00;5304439;28;20032;-74
2022/11/17 00:25:36;;;;;;;0.77;0.20;;;;;;;-146.48;100.00;60459.00;5305873;28;20433;-73
2022/11/17 00:28:07;;;;;;;0.63;0.20;;;;;;;-146.48;100.00;60459.00;5307103;28;20027;-73
2022/11/17 00:36:18;;;;;;;382.65;33.63;;;;;;;-146.48;100.00;60459.00;5306211;28;20032;-72
2022/11/17 00:39:48;;;;;;;277.83;24.45;;;;;;;-146.48;100.00;60459.00;5305847;28;20024;-72
2022/11/17 00:43:18;;;;;;;106.95;12.05;;;;;;;-146.48;100.00;60459.00;5305940;28;20023;-73
2022/11/17 00:46:48;;;;;;;30.40;3.40;;;;;;;-146.48;100.00;60459.00;5306006;28;20486;-73
2022/11/17 00:50:18;;;;;;;13.35;1.80;;;;;;;-146.48;100.00;60459.00;5305961;28;20061;-74
2022/11/17 00:53:48;;;;;;;53.17;2.67;;;;;;;-146.48;100.00;60459.00;5305613;28;20032;-73
2022/11/17 00:57:18;;;;;;;60.47;2.50;;;;;;;-146.48;100.00;60459.00;5306119;28;20028;-74
2022/11/17 01:00:48;;;;;;;208.45;9.50;;;;;;;-146.48;100.00;60459.00;5305491;28;20020;-74
2022/11/17 01:04:18;;;;;;;136.25;8.25;;;;;;;-146.48;100.00;60459.00;5305722;28;20039;-73
2022/11/17 01:06:49;;;;;;;213.00;10.25;;;;;;;-146.48;100.00;60459.00;5305472;28;20024;-73
2022/11/17 01:09:22;;;;;;;308.13;14.75;;;;;;;-146.48;100.00;60459.00;5305742;28;20020;-74
2022/11/17 01:11:53;;;;;;;317.15;16.92;;;;;;;-146.48;100.00;60459.00;5306112;28;20028;-73
2022/11/17 01:14:28;;;;;;;318.92;14.52;;;;;;;-146.48;100.00;60459.00;5304441;28;20030;-73
2022/11/17 01:17:00;;;;;;;200.52;10.43;;;;;;;-146.48;100.00;60459.00;5306146;28;20032;-73
2022/11/17 01:19:31;;;;;;;356.38;19.58;;;;;;;-146.48;100.00;60459.00;5305635;28;20028;-73
2022/11/17 01:22:02;;;;;;;503.33;22.25;;;;;;;-146.48;100.00;60459.00;5305025;28;20109;-73
2022/11/17 01:24:34;;;;;;;403.75;19.13;;;;;;;-146.48;100.00;60459.00;5305195;28;20016;-72
2022/11/17 01:27:05;;;;;;;427.98;18.17;;;;;;;-146.48;100.00;60459.00;5306057;28;20126;-73
2022/11/17 01:29:36;;;;;;;438.02;18.63;;;;;;;-146.48;100.00;60459.00;5304472;28;20028;-73
2022/11/17 01:32:07;;;;;;;394.60;16.05;;;;;;;-146.48;100.00;60459.00;5305707;28;20028;-72
2022/11/17 01:34:39;;;;;;;584.70;27.35;;;;;;;-146.48;100.00;60459.00;5303694;28;20040;-72
2022/11/17 01:37:19;;;;;;;505.25;21.70;;;;;;;-146.48;100.00;60459.00;5305636;28;20125;-73
2022/11/17 01:39:50;;;;;;;1058.80;53.92;;;;;;;-146.48;100.00;60459.00;5305691;28;20024;-74
2022/11/17 01:42:24;;;;;;;1842.05;140.68;;;;;;;-146.48;100.00;60459.00;5304132;28;20502;-73
2022/11/17 01:45:16;;;;;;;1999.90;125.05;;;;;;;-146.48;100.00;60459.00;5305416;28;20073;-73
2022/11/17 01:47:58;;;;;;;1202.25;84.68;;;;;;;-146.48;100.00;60459.00;5305520;28;20035;-73
2022/11/17 01:50:36;;;;;;;1312.40;110.70;;;;;;;-146.48;100.00;60459.00;5304215;28;20031;-72
2022/11/17 01:53:12;;;;;;;1393.55;122.70;;;;;;;-146.48;100.00;60459.00;5305322;28;20070;-73
2022/11/17 01:55:55;;;;;;;457.73;36.35;;;;;;;-146.48;100.00;60459.00;5304285;28;20024;-72
2022/11/17 01:58:32;;;;;;;747.22;65.78;;;;;;;-146.48;100.00;60459.00;5304640;28;20054;-72
2022/11/17 02:01:04;;;;;;;815.55;66.82;;;;;;;-146.48;100.00;60459.00;5304900;28;20020;-72
2022/11/17 02:03:38;;;;;;;609.47;47.22;;;;;;;-146.48;100.00;60459.00;5303702;28;20032;-72
2022/11/17 02:06:15;;;;;;;173.35;19.65;;;;;;;-146.48;100.00;60459.00;5304944;28;20044;-73
2022/11/17 02:08:50;;;;;;;71.65;7.72;;;;;;;-146.48;100.00;60459.00;5304878;28;20038;-73
2022/11/17 02:11:21;;;;;;;40.38;5.22;;;;;;;-146.48;100.00;60459.00;5303631;28;20027;-73
2022/11/17 02:13:54;;;;;;;34.15;3.70;;;;;;;-146.48;100.00;60459.00;5304853;28;20077;-73
2022/11/17 02:16:26;;;;;;;32.00;2.25;;;;;;;-146.48;100.00;60459.00;5303991;28;20498;-73
2022/11/17 02:18:57;;;;;;;8.77;0.82;;;;;;;-146.48;100.00;60459.00;5303583;28;20110;-73
2022/11/17 02:21:43;;;;;;;33.80;2.97;;;;;;;-146.48;100.00;60459.00;5304304;28;20039;-72
2022/11/17 02:24:33;;;;;;;84.70;9.50;;;;;;;-146.48;100.00;60459.00;5303549;28;20115;-73
2022/11/17 02:27:22;;;;;;;8.50;1.38;;;;;;;-146.48;100.00;60459.00;5304667;28;20368;-73
2022/11/17 02:30:00;;;;;;;;;;;;;;;-146.48;100.00;60459.00;5305066;28;20028;-73
2022/11/17 02:32:40;;;;;;;170.23;16.05;;;;;;;-146.48;100.00;60459.00;5303209;28;20219;-73
2022/11/17 02:35:18;;;;;;;31.73;3.35;;;;;;;-146.48;100.00;60459.00;5304056;28;20372;-73
2022/11/17 02:38:15;;;;;;;23.63;2.28;;;;;;;-146.48;100.00;60459.00;5303994;28;20066;-73
2022/11/17 02:41:15;;;;;;;47.20;3.80;;;;;;;-146.48;100.00;60459.00;5304313;28;20102;-73
2022/11/17 02:44:09;;;;;;;18.20;1.88;;;;;;;-146.48;100.00;60459.00;5304093;28;20110;-74
2022/11/17 02:46:46;;;;;;;85.50;8.50;;;;;;;-146.48;100.00;60459.00;5302391;28;20467;-73
2022/11/17 02:49:34;;;;;;;27.63;5.93;;;;;;;-146.48;100.00;60459.00;5303738;28;20436;-73
2022/11/17 02:52:08;;;;;;;39.80;5.88;;;;;;;-146.48;100.00;60459.00;5303379;28;20069;-73
2022/11/17 02:54:39;;;;;;;3.55;0.50;;;;;;;-146.48;100.00;60459.00;5303731;28;20035;-73
2022/11/17 02:57:45;;;;;;;2.65;0.40;;;;;;;-146.48;100.00;60459.00;5304304;28;20020;-72
2022/11/17 03:00:18;;;;;;;0.68;0.25;;;;;;;-146.48;100.00;60459.00;5217247;28;20034;-73
2022/11/17 03:03:04;;;;;;;0.47;0.20;;;;;;;-146.48;100.00;60459.00;5291141;28;20225;-73
2022/11/17 03:06:03;;;;;;;0.40;0.20;;;;;;;-146.48;100.00;60459.00;5303576;28;20111;-72
2022/11/17 03:08:47;;;;;;;;;;;;;;;-146.48;100.00;60459.00;5303914;28;20499;-73
2022/11/17 03:11:26;;;;;;;1.00;0.20;;;;;;;-146.48;100.00;60459.00;5303623;28;20313;-73
2022/11/17 03:14:14;;;;;;;1.08;0.10;;;;;;;-146.48;100.00;60459.00;5303031;28;20024;-72
2022/11/17 03:16:54;;;;;;;2.28;0.20;;;;;;;-146.48;100.00;60459.00;5303603;28;20048;-73
2022/11/17 03:19:34;;;;;;;0.40;0.10;;;;;;;-146.48;100.00;60459.00;5303110;28;20055;-73
2022/11/17 03:22:11;;;;;;;0.75;0.10;;;;;;;-146.48;100.00;60459.00;5302965;28;20446;-72
2022/11/17 03:24:48;;;;;;;1.27;0.20;;;;;;;-146.48;100.00;60459.00;5303257;28;20063;-73
2022/11/17 03:27:19;;;;;;;0.90;0.20;;;;;;;-146.48;100.00;60459.00;5302249;28;20058;-71
2022/11/17 03:29:56;;;;;;;1.00;0.10;;;;;;;-146.48;100.00;60459.00;5303318;28;20099;-71
2022/11/17 03:32:37;;;;;;;1.65;0.10;;;;;;;-146.48;100.00;60459.00;5302910;28;20038;-72
2022/11/17 03:35:12;;;;;;;0.80;0.10;;;;;;;-146.48;100.00;60459.00;5302279;28;20445;-71
2022/11/17 03:37:49;;;;;;;0.88;0.10;;;;;;;-146.48;100.00;60459.00;5303162;28;20032;-71
2022/11/17 03:40:25;;;;;;;1.42;0.20;;;;;;;-146.48;100.00;60459.00;5302582;28;20028;-72
2022/11/17 03:43:04;;;;;;;0.50;0.10;;;;;;;-146.48;100.00;60459.00;5302449;28;20035;-72
2022/11/17 03:45:45;;;;;;;1.80;0.20;;;;;;;-146.48;100.00;60459.00;5302787;28;20437;-71
2022/11/17 03:48:42;;;;;;;2.15;0.10;;;;;;;-146.48;100.00;60459.00;5301669;28;20025;-71
2022/11/17 03:51:18;;;;;;;1.10;0.20;;;;;;;-146.48;100.00;60459.00;5301619;28;20044;-71
2022/11/17 03:53:50;;;;;;;0.80;0.10;;;;;;;-146.48;100.00;60459.00;5303184;28;20028;-71
2022/11/17 03:56:48;;;;;;;2.15;0.13;;;;;;;-146.48;100.00;60459.00;5301785;28;20086;-71
2022/11/17 03:59:36;;;;;;;2.60;0.20;;;;;;;-146.48;100.00;60459.00;5302479;28;20424;-73
2022/11/17 04:02:13;;;;;;;1.38;0.20;;;;;;;-146.48;100.00;60459.00;5302741;28;20024;-72
2022/11/17 04:07:41;;;;;;;0.32;0.08;;;;;;;-146.48;100.00;60459.00;5302563;28;20032;-72
2022/11/17 04:10:15;;;;;;;1.75;0.10;;;;;;;-146.48;100.00;60459.00;5301646;28;20059;-72
2022/11/17 04:15:55;;;;;;;1.05;0.10;;;;;;;-146.48;100.00;60459.00;5302478;28;20036;-72
2022/11/17 04:18:26;;;;;;;0.95;0.10;;;;;;;-146.48;100.00;60459.00;5301493;28;20016;-72
2022/11/17 04:20:58;;;;;;;0.20;0.10;;;;;;;-146.48;100.00;60459.00;5302890;28;20020;-73
2022/11/17 04:23:29;;;;;;;1.13;0.10;;;;;;;-146.48;100.00;60459.00;5301537;28;20095;-72
2022/11/17 04:28:50;;;;;;;1.70;0.10;;;;;;;-146.48;100.00;60459.00;5303268;28;20028;-72
2022/11/17 04:31:23;;;;;;;0.65;0.10;;;;;;;-146.48;100.00;60459.00;5301531;28;20372;-74
2022/11/17 04:34:00;;;;;;;1.75;0.15;;;;;;;-146.48;100.00;60459.00;5302453;28;20107;-72
2022/11/17 04:36:35;;;;;;;3.45;0.20;;;;;;;-146.48;100.00;60459.00;5302107;28;20028;-71
2022/11/17 04:39:06;;;;;;;1.58;0.20;;;;;;;-146.48;100.00;60459.00;5302066;28;20035;-72
2022/11/17 04:41:55;;;;;;;0.82;0.20;;;;;;;-146.48;100.00;60459.00;5302215;28;20020;-72
2022/11/17 04:44:27;;;;;;;;;;;;;;;-146.48;100.00;60459.00;5301785;28;20476;-72
2022/11/17 04:47:01;;;;;;;0.80;0.15;;;;;;;-146.48;100.00;60459.00;5302683;28;20381;-72
2022/11/17 04:49:33;;;;;;;1.92;0.17;;;;;;;-146.48;100.00;60459.00;5302189;28;20077;-72
2022/11/17 04:52:04;;;;;;;0.80;0.10;;;;;;;-146.48;100.00;60459.00;5301752;28;20085;-72
2022/11/17 04:54:35;;;;;;;1.63;0.57;;;;;;;-146.48;100.00;60459.00;5302049;28;20471;-73
2022/11/17 04:57:07;;;;;;;2.28;0.28;;;;;;;-146.48;100.00;60459.00;5302460;28;20402;-72
2022/11/17 04:59:38;;;;;;;1.77;0.25;;;;;;;-146.48;100.00;60459.00;5301310;28;20379;-72
2022/11/17 05:02:09;;;;;;;2.08;0.20;;;;;;;-146.48;100.00;60459.00;5302559;28;20030;-73
2022/11/17 05:04:56;;;;;;;3.03;0.30;;;;;;;-146.48;100.00;60459.00;5301986;28;20047;-73
2022/11/17 05:07:27;;;;;;;5.03;0.20;;;;;;;-146.48;100.00;60459.00;5300976;28;20544;-71
2022/11/17 05:09:58;;;;;;;1.38;0.22;;;;;;;-146.48;100.00;60459.00;5305349;28;20106;-72
2022/11/17 05:17:03;;;;;;;2.67;0.30;;;;;;;-146.48;100.00;60459.00;5305803;28;20115;-72
2022/11/17 05:18:10;;;;;;;3.58;0.25;;;;;;;-146.48;100.00;60459.00;5306087;28;20120;-72
2022/11/17 05:20:42;;;;;;;1.52;0.40;;;;;;;-146.48;100.00;60459.00;5304699;28;20106;-72
2022/11/17 05:26:03;;;;;;;4.22;0.63;;;;;;;-146.48;100.00;60459.00;5306181;28;20035;-73
2022/11/17 05:28:34;;;;;;;2.72;0.70;;;;;;;-146.48;100.00;60459.00;5304336;28;20020;-72
2022/11/17 05:31:05;;;;;;;4.70;0.38;;;;;;;-146.48;100.00;60459.00;5306042;28;20024;-72
2022/11/17 05:33:37;;;;;;;3.80;0.38;;;;;;;-146.48;100.00;60459.00;5305060;28;20043;-72
2022/11/17 05:36:09;;;;;;;2.92;0.30;;;;;;;-146.48;100.00;60459.00;5304886;28;20422;-72
2022/11/17 05:38:40;;;;;;;2.90;0.52;;;;;;;-146.48;100.00;60459.00;5305122;28;20425;-72
2022/11/17 05:41:13;;;;;;;2.67;0.30;;;;;;;-146.48;100.00;60459.00;5304613;28;20088;-73
2022/11/17 05:43:45;;;;;;;4.25;0.30;;;;;;;-146.48;100.00;60459.00;5305965;28;20036;-72
2022/11/17 05:46:17;;;;;;;3.08;0.32;;;;;;;-146.48;100.00;60459.00;5304852;28;20149;-72
2022/11/17 05:48:50;;;;;;;5.57;0.60;;;;;;;-146.48;100.00;60459.00;5304672;28;20103;-72
2022/11/17 05:51:23;;;;;;;3.88;0.60;;;;;;;-146.48;100.00;60459.00;5304792;28;20036;-72
2022/11/17 05:53:54;;;;;;;4.43;0.55;;;;;;;-146.48;100.00;60459.00;5305509;28;20068;-72
2022/11/17 05:56:45;;;;;;;4.82;0.50;;;;;;;-146.48;100.00;60459.00;5303915;28;20048;-72
2022/11/17 05:59:22;;;;;;;3.55;0.30;;;;;;;-146.48;100.00;60459.00;5304543;28;20431;-72
2022/11/17 06:02:04;;;;;;;3.78;0.47;;;;;;;-146.48;100.00;60459.00;5304055;28;20027;-72
2022/11/17 06:04:35;;;;;;;4.10;0.40;;;;;;;-146.48;100.00;60459.00;5304438;28;20119;-72
2022/11/17 06:07:07;;;;;;;3.00;0.40;;;;;;;-146.48;100.00;60459.00;5304874;28;20099;-72
2022/11/17 06:09:40;;;;;;;5.13;0.40;;;;;;;-146.48;100.00;60459.00;5303313;28;20081;-74
2022/11/17 06:12:14;;;;;;;4.22;0.40;;;;;;;-146.48;100.00;60459.00;5304273;28;20027;-72
2022/11/17 06:14:45;;;;;;;3.22;0.40;;;;;;;-146.48;100.00;60459.00;5304566;28;20063;-72
2022/11/17 06:17:21;;;;;;;3.85;0.50;;;;;;;-146.48;100.00;60459.00;5303245;28;20475;-72
2022/11/17 06:20:00;;;;;;;3.58;0.55;;;;;;;-146.48;100.00;60459.00;5303981;28;20090;-72
2022/11/17 06:22:32;;;;;;;5.68;0.40;;;;;;;-146.48;100.00;60459.00;5303833;28;20058;-72
2022/11/17 06:25:07;;;;;;;3.97;0.65;;;;;;;-146.48;100.00;60459.00;5303673;28;20024;-72
2022/11/17 06:27:40;;;;;;;4.80;0.40;;;;;;;-146.48;100.00;60459.00;5303653;28;20020;-72
2022/11/17 06:30:11;;;;;;;3.47;0.30;;;;;;;-146.48;100.00;60459.00;5303540;28;20030;-72
2022/11/17 06:32:44;;;;;;;5.05;0.40;;;;;;;-146.48;100.00;60459.00;5303784;28;20016;-72
2022/11/17 06:35:15;;;;;;;3.05;0.20;;;;;;;-146.48;100.00;60459.00;5303285;28;20048;-72
2022/11/17 06:37:47;;;;;;;3.10;0.50;;;;;;;-146.48;100.00;60459.00;5303565;28;20521;-72
2022/11/17 06:40:18;;;;;;;2.72;0.43;;;;;;;-146.48;100.00;60459.00;5303498;28;20110;-72
2022/11/17 06:43:08;;;;;;;5.95;0.90;;;;;;;-146.48;100.00;60459.00;5304097;28;20463;-72
2022/11/17 06:45:42;;;;;;;1.85;0.20;;;;;;;-146.48;100.00;60459.00;5302603;28;20420;-70
2022/11/17 06:48:16;;;;;;;2.13;0.30;;;;;;;-146.48;100.00;60459.00;5303487;28;20031;-73
2022/11/17 06:50:47;;;;;;;2.65;0.30;;;;;;;-146.48;100.00;60459.00;5304167;28;20027;-72
2022/11/17 06:53:19;;;;;;;2.55;0.20;;;;;;;-146.48;100.00;60459.00;5302416;28;20021;-72
2022/11/17 06:58:52;;;;;;;2.83;0.20;;;;;;;-146.48;100.00;60459.00;5289933;28;20032;-73
2022/11/17 07:01:24;;;;;;;4.60;0.30;;;;;;;-146.48;100.00;60459.00;5303287;28;20039;-73
2022/11/17 07:03:55;;;;;;;1.58;0.35;;;;;;;-146.48;100.00;60459.00;5303494;28;20114;-72
2022/11/17 07:06:26;;;;;;;1.88;0.30;;;;;;;-146.48;100.00;60459.00;5302081;28;20106;-71
2022/11/17 07:08:58;;;;;;;2.47;0.30;;;;;;;-146.48;100.00;60459.00;5303761;28;20016;-71
2022/11/17 07:11:29;;;;;;;2.85;0.52;;;;;;;-146.48;100.00;60459.00;5302849;28;20023;-72
2022/11/17 07:14:00;;;;;;;2.25;0.30;;;;;;;-146.48;100.00;60459.00;5302673;28;20120;-71
2022/11/17 07:16:31;;;;;;;2.10;0.30;;;;;;;-146.48;100.00;60459.00;5302775;28;20483;-71
2022/11/17 07:19:03;;;;;;;2.45;0.30;;;;;;;-146.48;100.00;60459.00;5303248;28;20479;-70
2022/11/17 07:21:35;;;;;;;2.42;0.20;;;;;;;-146.48;100.00;60459.00;5302165;28;20544;-70
2022/11/17 07:24:07;;;;;;;2.40;0.20;;;;;;;-146.48;100.00;60459.00;5303351;28;20028;-70
2022/11/17 07:26:38;;;;;;;2.72;0.20;;;;;;;-146.48;100.00;60459.00;5301920;28;20039;-71
2022/11/17 07:29:10;;;;;;;2.38;0.30;;;;;;;-146.48;100.00;60459.00;5303272;28;20032;-71
2022/11/17 07:31:42;;;;;;;3.58;0.38;;;;;;;-146.48;100.00;60459.00;5302374;28;20024;-71
2022/11/17 07:34:13;;;;;;;2.15;0.20;;;;;;;-146.48;100.00;60459.00;5301895;28;20131;-71
2022/11/17 07:36:44;;;;;;;3.95;0.28;;;;;;;-146.48;100.00;60459.00;5302994;28;20103;-71
2022/11/17 07:39:15;;;;;;;2.75;0.20;;;;;;;-146.48;100.00;60459.00;5297542;28;20479;-69
2022/11/17 07:41:47;;;;;;;3.97;0.20;;;;;;;-146.48;100.00;60459.00;5302021;28;20456;-71
2022/11/17 07:44:18;;;;;;;2.00;0.20;;;;;;;-146.48;100.00;60459.00;5301880;28;20446;-71
2022/11/17 07:46:49;;;;;;;4.85;0.30;;;;;;;-146.48;100.00;60459.00;5302356;28;20413;-71
2022/11/17 07:49:21;;;;;;;1.92;0.20;;;;;;;-146.48;100.00;60459.00;5300181;28;20359;-71
2022/11/17 07:51:52;;;;;;;2.03;0.20;;;;;;;-146.48;100.00;60459.00;5302421;28;20464;-70
2022/11/17 07:54:23;;;;;;;1.75;0.30;;;;;;;-146.48;100.00;60459.00;5301129;28;20455;-72
2022/11/17 07:56:54;;;;;;;1.88;0.20;;;;;;;-146.48;100.00;60459.00;5302592;28;20047;-71
2022/11/17 07:59:26;;;;;;;1.83;0.20;;;;;;;-146.48;100.00;60459.00;5301813;28;20459;-71
2022/11/17 08:01:57;;;;;;;1.65;0.20;;;;;;;-146.48;100.00;60459.00;5301840;28;20491;-71
2022/11/17 08:04:28;;;;;;;1.42;0.10;;;;;;;-146.48;100.00;60459.00;5301875;28;20111;-71
2022/11/17 08:07:00;;;;;;;2.50;0.30;;;;;;;-146.48;100.00;60459.00;5302466;28;20028;-72
2022/11/17 08:09:31;;;;;;;1.23;0.20;;;;;;;-146.48;100.00;60459.00;5301138;28;20574;-70
2022/11/17 08:12:02;;;;;;;2.88;0.30;;;;;;;-146.48;100.00;60459.00;5302621;28;20035;-72
2022/11/17 08:14:34;;;;;;;2.20;0.20;;;;;;;-146.48;100.00;60459.00;5301474;28;20062;-69
2022/11/17 08:17:05;;;;;;;1.13;0.13;;;;;;;-146.48;100.00;60459.00;5301370;28;20053;-71
2022/11/17 08:19:36;;;;;;;3.90;0.43;;;;;;;-146.48;100.00;60459.00;5301908;28;20043;-71
2022/11/17 08:22:08;;;;;;;1.10;0.10;;;;;;;-146.48;100.00;60459.00;5302429;28;21954;-71
2022/11/17 08:24:39;;;;;;;1.75;0.22;;;;;;;-146.48;100.00;60459.00;5301212;28;20027;-71
2022/11/17 08:27:10;;;;;;;1.52;0.20;;;;;;;-146.48;100.00;60459.00;5302351;28;20028;-70
2022/11/17 08:29:41;;;;;;;2.83;0.30;;;;;;;-146.48;100.00;60459.00;5300669;28;20024;-70
2022/11/17 08:32:13;;;;;;;2.03;0.20;;;;;;;-146.48;100.00;60459.00;5301826;28;20055;-71
2022/11/17 08:34:44;;;;;;;1.50;0.20;;;;;;;-146.48;100.00;60459.00;5301702;28;20453;-70
2022/11/17 08:37:15;;;;;;;2.95;0.30;;;;;;;-146.48;100.00;60459.00;5300860;28;20383;-71
2022/11/17 08:39:47;;;;;;;1.33;0.20;;;;;;;-146.48;100.00;60459.00;5302298;28;20394;-71
2022/11/17 08:42:18;;;;;;;3.55;0.20;;;;;;;-146.48;100.00;60459.00;5301226;28;20028;-72
2022/11/17 08:44:49;;;;;;;3.35;0.20;;;;;;;-146.48;100.00;60459.00;5304584;28;20028;-71
2022/11/17 08:47:20;;;;;;;3.22;0.10;;;;;;;-146.48;100.00;60459.00;5305987;28;20032;-70
2022/11/17 08:49:52;;;;;;;2.42;0.20;;;;;;;-146.48;100.00;60459.00;5306483;28;20052;-71
2022/11/17 08:52:23;;;;;;;2.72;0.20;;;;;;;-146.48;100.00;60459.00;5304807;28;20035;-71
2022/11/17 08:54:54;;;;;;;2.10;0.20;;;;;;;-146.48;100.00;60459.00;5305924;28;20016;-71
2022/11/17 08:57:28;;;;;;;2.08;0.17;;;;;;;-146.48;100.00;60459.00;5305307;28;20016;-72
2022/11/17 08:59:59;;;;;;;1.45;0.17;;;;;;;-146.48;100.00;60459.00;5305401;28;20459;-71
2022/11/17 09:02:31;;;;;;;1.60;0.28;;;;;;;-146.48;100.00;60459.00;5305238;28;20111;-71
2022/11/17 09:05:03;;;;;;;2.22;0.30;;;;;;;-146.48;100.00;60459.00;5305183;28;20024;-71
2022/11/17 09:07:34;;;;;;;1.67;0.10;;;;;;;-146.48;100.00;60459.00;5304820;28;20020;-71
2022/11/17 09:10:09;;;;;;;1.92;0.20;;;;;;;-146.48;100.00;60459.00;5305963;28;20089;-71
2022/11/17 09:12:40;;;;;;;2.88;0.50;;;;;;;-146.48;100.00;60459.00;5304436;28;20069;-71
2022/11/17 09:15:12;;;;;;;2.45;0.22;;;;;;;-146.48;100.00;60459.00;5305481;28;20028;-71
2022/11/17 09:17:46;;;;;;;2.05;0.10;;;;;;;-146.48;100.00;60459.00;5305015;28;20125;-71
2022/11/17 09:20:18;;;;;;;1.67;0.20;;;;;;;-146.48;100.00;60459.00;5304191;28;20024;-71
2022/11/17 09:22:50;;;;;;;2.33;0.20;;;;;;;-146.48;100.00;60459.00;5305280;28;20105;-71
2022/11/17 09:25:21;;;;;;;3.22;0.20;;;;;;;-146.48;100.00;60459.00;5304926;28;20544;-71
2022/11/17 09:27:52;;;;;;;2.60;0.20;;;;;;;-146.48;100.00;60459.00;5304573;28;20047;-71
2022/11/17 09:30:24;;;;;;;1.00;0.10;;;;;;;-146.48;100.00;60459.00;5304974;28;20110;-71
2022/11/17 09:32:56;;;;;;;0.85;0.17;;;;;;;-146.48;100.00;60459.00;5304575;28;20024;-71
2022/11/17 09:35:28;;;;;;;1.05;0.10;;;;;;;-146.48;100.00;60459.00;5304485;28;20054;-70
2022/11/17 09:38:00;;;;;;;4.22;0.50;;;;;;;-146.48;100.00;60459.00;5305022;28;20024;-70
2022/11/17 09:40:33;;;;;;;1.48;0.20;;;;;;;-146.48;100.00;60459.00;5303629;28;20653;-70
2022/11/17 09:43:29;;;;;;;2.88;0.20;;;;;;;-146.48;100.00;60459.00;5305189;28;20067;-70
2022/11/17 09:46:27;;;;;;;1.05;0.20;;;;;;;-146.48;100.00;60459.00;5297573;28;20124;-71
2022/11/17 09:49:17;;;;;;;3.13;0.20;;;;;;;-146.48;100.00;60459.00;5304063;28;20094;-71
2022/11/17 09:51:49;;;;;;;2.85;0.10;;;;;;;-146.48;100.00;60459.00;5305026;28;20016;-71
2022/11/17 09:54:42;;;;;;;2.15;0.20;;;;;;;-146.48;100.00;60459.00;5303087;28;20027;-71
2022/11/17 09:57:21;;;;;;;4.07;0.30;;;;;;;-146.48;100.00;60459.00;5304100;28;20026;-71
2022/11/17 10:00:03;;;;;;;2.20;0.17;;;;;;;-146.48;100.00;60459.00;5304885;28;20494;-71
2022/11/17 10:02:34;;;;;;;2.20;0.50;;;;;;;-146.48;100.00;60459.00;5303477;28;20032;-71
2022/11/17 10:05:12;;;;;;;1.38;0.10;;;;;;;-146.48;100.00;60459.00;5304704;28;20057;-71
2022/11/17 10:07:48;;;;;;;2.00;0.20;;;;;;;-146.48;100.00;60459.00;5304250;28;20023;-71
2022/11/17 10:10:50;;;;;;;1.63;0.10;;;;;;;-146.48;100.00;60459.00;5303325;28;20057;-71
2022/11/17 10:13:30;;;;;;;2.45;0.20;;;;;;;-146.48;100.00;60459.00;5291066;28;20107;-71
2022/11/17 10:16:10;;;;;;;2.35;0.17;;;;;;;-146.48;100.00;60459.00;5303410;28;20028;-71
2022/11/17 10:18:42;;;;;;;1.58;0.20;;;;;;;-146.48;100.00;60459.00;5303756;28;20072;-71
2022/11/17 10:21:13;;;;;;;1.85;0.32;;;;;;;-146.48;100.00;60459.00;5303526;28;20467;-71
2022/11/17 10:23:57;;;;;;;2.25;0.20;;;;;;;-146.48;100.00;60459.00;5303457;28;20482;-72
2022/11/17 10:26:42;;;;;;;1.80;0.20;;;;;;;-146.48;100.00;60459.00;5303502;28;20027;-72
2022/11/17 10:29:20;;;;;;;2.15;0.20;;;;;;;-146.48;100.00;60459.00;5303058;28;20471;-72
2022/11/17 10:31:51;;;;;;;2.28;0.20;;;;;;;-146.48;100.00;60459.00;5304187;28;20034;-72
2022/11/17 10:34:30;;;;;;;3.53;0.50;;;;;;;-146.48;100.00;60459.00;5303200;28;20492;-71
2022/11/17 10:37:10;;;;;;;2.40;0.10;;;;;;;-146.48;100.00;60459.00;5303113;28;20031;-71
2022/11/17 10:39:42;;;;;;;0.63;0.08;;;;;;;-146.48;100.00;60459.00;5303406;28;20032;-70
2022/11/17 10:42:19;;;;;;;1.17;0.20;;;;;;;-146.48;100.00;60459.00;5303385;28;20157;-70
2022/11/17 10:44:55;;;;;;;2.08;0.10;;;;;;;-146.48;100.00;60459.00;5302926;28;20471;-69
2022/11/17 10:47:36;;;;;;;1.67;0.30;;;;;;;-146.48;100.00;60459.00;5303163;28;20371;-70
2022/11/17 10:50:21;;;;;;;2.15;0.30;;;;;;;-146.48;100.00;60459.00;5301606;28;20039;-70
2022/11/17 10:53:14;;;;;;;3.10;0.20;;;;;;;-146.48;100.00;60459.00;5303637;28;20028;-70
2022/11/17 10:55:57;;;;;;;3.20;0.10;;;;;;;-146.48;100.00;60459.00;5303406;28;20036;-69
2022/11/17 10:58:31;;;;;;;3.97;0.20;;;;;;;-146.48;100.00;60459.00;5302353;28;20383;-70
2022/11/17 11:01:03;;;;;;;3.05;0.22;;;;;;;-146.48;100.00;60459.00;5303490;28;20512;-72
2022/11/17 11:03:34;;;;;;;2.53;0.20;;;;;;;-146.48;100.00;60459.00;5303240;28;20035;-72
2022/11/17 11:06:25;;;;;;;3.78;0.20;;;;;;;-146.48;100.00;60459.00;5302058;28;20031;-72
2022/11/17 11:09:14;;;;;;;3.53;0.10;;;;;;;-146.48;100.00;60459.00;5303246;28;20044;-72
2022/11/17 11:11:48;;;;;;;3.45;0.30;;;;;;;-146.48;100.00;60459.00;5302600;28;20028;-72
2022/11/17 11:14:36;;;;;;;2.60;0.22;;;;;;;-146.48;100.00;60459.00;5302597;28;20092;-72
2022/11/17 11:17:11;;;;;;;1.77;0.20;;;;;;;-146.48;100.00;60459.00;5303408;28;20031;-71
2022/11/17 11:19:51;;;;;;;2.03;0.20;;;;;;;-146.48;100.00;60459.00;5302089;28;20028;-71
2022/11/17 11:22:28;;;;;;;2.47;0.20;;;;;;;-146.48;100.00;60459.00;5302184;28;20490;-71
2022/11/17 11:25:16;;;;;;;2.35;0.17;;;;;;;-146.48;100.00;60459.00;5303261;28;20032;-71
2022/11/17 11:28:02;;;;;;;2.72;0.20;;;;;;;-146.48;100.00;60459.00;5302217;28;20036;-71
2022/11/17 11:30:53;;;;;;;1.42;0.30;;;;;;;-146.48;100.00;60459.00;5302307;28;20425;-72
2022/11/17 11:33:33;;;;;;;2.42;0.20;;;;;;;-146.48;100.00;60459.00;5301762;28;20035;-72
2022/11/17 11:36:35;;;;;;;1.20;0.15;;;;;;;-146.48;100.00;60459.00;5302964;28;20467;-72
2022/11/17 11:39:32;;;;;;;2.08;0.20;;;;;;;-146.48;100.00;60459.00;5302761;28;20119;-71
2022/11/17 11:42:32;;;;;;;3.85;0.20;;;;;;;-146.48;100.00;60459.00;5291737;28;20032;-72
2022/11/17 11:45:28;;;;;;;0.90;0.10;;;;;;;-146.48;100.00;60459.00;5302757;28;20036;-71
2022/11/17 11:48:21;;;;;;;2.88;0.75;;;;;;;-146.48;100.00;60459.00;5302178;28;20024;-72
2022/11/17 11:50:57;;;;;;;1.80;0.20;;;;;;;-146.48;100.00;60459.00;5302878;28;20027;-72
2022/11/17 11:53:44;;;;;;;2.35;0.20;;;;;;;-146.48;100.00;60459.00;5301185;28;20406;-71
2022/11/17 11:56:29;;;;;;;2.38;0.20;;;;;;;-146.48;100.00;60459.00;5302137;28;20024;-72
2022/11/17 11:59:12;;;;;;;1.80;0.20;;;;;;;-146.48;100.00;60459.00;5302424;28;20536;-71
2022/11/17 12:01:58;;;;;;;4.30;0.13;;;;;;;-146.48;100.00;60459.00;5301959;28;20085;-72
2022/11/17 12:04:44;;;;;;;1.45;0.20;;;;;;;-146.48;100.00;60459.00;5301654;28;20119;-71
2022/11/17 12:07:47;;;;;;;2.25;0.22;;;;;;;-146.48;100.00;60459.00;5301977;28;20425;-72
2022/11/17 12:10:28;;;;;;;0.68;0.10;;;;;;;-146.48;100.00;60459.00;5278267;28;20024;-71
2022/11/17 12:13:02;;;;;;;0.95;0.30;;;;;;;-146.48;100.00;60459.00;5302092;28;20074;-71
2022/11/17 12:15:34;;;;;;;2.25;0.20;;;;;;;-146.48;100.00;60459.00;5301072;28;20062;-71
2022/11/17 12:18:17;;;;;;;4.13;0.20;;;;;;;-146.48;100.00;60459.00;5302441;28;20016;-71
2022/11/17 12:20:58;;;;;;;1.50;0.10;;;;;;;-146.48;100.00;60459.00;5306515;28;20028;-71
2022/11/17 12:23:36;;;;;;;2.60;0.10;;;;;;;-146.48;100.00;60459.00;5304920;28;20031;-71
2022/11/17 12:26:26;;;;;;;1.85;0.17;;;;;;;-146.48;100.00;60459.00;5306786;28;20043;-71